Time;durP1;ratioP1;P1;durP2;ratioP2;P2;SDS_P1;SDS_P2;PMS_P1;PMS_P2;Temp;Humidity;BMP_temperature;BMP_pressure;BME280_temperature;BME280_humidity;BME280_pressure;Samples;Min_cycle;Max_cycle;Signal;HPM_P1;HPM_P2
2022/11/27 00:01:40;;;;;;;7.18;5.63;;;;;;;1.54;100.00;62160.88;5001557;28;20249;-78
2022/11/27 00:04:10;;;;;;;7.68;5.55;;;;;;;1.50;100.00;62152.28;4996943;28;20200;-80
2022/11/27 00:06:39;;;;;;;11.52;5.95;;;;;;;1.45;100.00;62147.13;4985925;28;20216;-80
2022/11/27 00:09:10;;;;;;;10.40;6.70;;;;;;;1.50;100.00;62154.28;4994176;28;20473;-78
2022/11/27 00:11:39;;;;;;;9.55;6.43;;;;;;;1.49;100.00;62151.25;5004724;28;20230;-78
2022/11/27 00:14:07;;;;;;;9.07;7.00;;;;;;;1.43;100.00;62147.63;5006262;28;20203;-79
2022/11/27 00:16:34;;;;;;;9.18;6.25;;;;;;;1.44;100.00;62150.63;5004512;28;20246;-79
2022/11/27 00:19:01;;;;;;;5.43;4.82;;;;;;;1.46;100.00;62150.16;5003997;28;20238;-79
2022/11/27 00:21:30;;;;;;;8.18;5.90;;;;;;;1.43;100.00;62150.13;4998569;28;20271;-79
2022/11/27 00:23:59;;;;;;;9.82;6.18;;;;;;;1.38;100.00;62141.97;4985076;28;20235;-79
2022/11/27 00:26:28;;;;;;;9.32;7.15;;;;;;;1.44;100.00;62150.63;4986029;28;20230;-79
2022/11/27 00:28:55;;;;;;;11.70;5.90;;;;;;;1.48;100.00;62150.22;5000001;28;20195;-79
2022/11/27 00:31:28;;;;;;;14.30;7.90;;;;;;;1.48;100.00;62152.22;5001895;28;20219;-79
2022/11/27 00:33:55;;;;;;;11.48;7.13;;;;;;;1.52;100.00;62156.84;5006802;28;20199;-77
2022/11/27 00:36:23;;;;;;;10.93;7.38;;;;;;;1.38;100.00;62141.97;5004768;28;20305;-78
2022/11/27 00:38:50;;;;;;;12.10;7.28;;;;;;;1.64;100.00;62166.63;5002360;28;20200;-79
2022/11/27 00:41:19;;;;;;;11.70;6.97;;;;;;;1.63;100.00;62167.63;5004697;28;20223;-78
2022/11/27 00:43:46;;;;;;;8.10;6.00;;;;;;;1.71;100.00;62175.84;5010077;28;20407;-79
2022/11/27 00:46:13;;;;;;;7.28;5.97;;;;;;;1.69;100.00;62171.78;5007438;28;20358;-78
2022/11/27 00:48:42;;;;;;;11.73;7.32;;;;;;;1.80;100.00;62187.56;4999310;28;20263;-79
2022/11/27 00:51:11;;;;;;;10.65;7.38;;;;;;;1.77;100.00;62185.00;5008019;28;20246;-78
2022/11/27 00:53:38;;;;;;;10.40;6.97;;;;;;;1.85;100.00;62187.69;5007582;28;20206;-78
2022/11/27 00:56:06;;;;;;;11.68;7.57;;;;;;;1.87;100.00;62192.25;5008709;28;20441;-80
2022/11/27 00:58:33;;;;;;;8.43;6.57;;;;;;;1.95;100.00;62203.47;4994156;28;20207;-79
2022/11/27 01:01:01;;;;;;;13.38;10.02;;;;;;;1.95;100.00;62198.47;4988831;28;20562;-78
2022/11/27 01:03:30;;;;;;;16.33;9.05;;;;;;;1.87;100.00;62194.75;4988779;28;20204;-79
2022/11/27 01:06:03;;;;;;;18.13;9.98;;;;;;;1.93;100.00;62198.41;4994089;28;20223;-79
2022/11/27 01:08:30;;;;;;;9.80;7.35;;;;;;;1.95;100.00;62208.00;5007965;28;20206;-79
2022/11/27 01:10:59;;;;;;;12.68;7.80;;;;;;;2.00;100.00;62208.13;5008500;28;20515;-79
2022/11/27 01:13:27;;;;;;;10.50;7.05;;;;;;;1.96;100.00;62204.53;5007245;28;20278;-79
2022/11/27 01:15:59;;;;;;;8.32;6.65;;;;;;;1.94;100.00;62199.44;5004267;28;20417;-79
2022/11/27 01:18:26;;;;;;;8.82;6.90;;;;;;;1.90;100.00;62197.84;5007239;28;20226;-79
2022/11/27 01:20:54;;;;;;;14.15;9.27;;;;;;;1.90;100.00;62198.34;5007047;28;20467;-79
2022/11/27 01:23:24;;;;;;;11.30;8.00;;;;;;;1.81;100.00;62184.09;5006515;28;20207;-79
2022/11/27 01:25:52;;;;;;;19.73;11.93;;;;;;;1.78;100.00;62185.50;5007278;28;20223;-79
2022/11/27 01:28:20;;;;;;;20.95;12.63;;;;;;;1.80;100.00;62185.06;5007042;28;20230;-78
2022/11/27 01:30:47;;;;;;;17.42;11.90;;;;;;;1.81;100.00;62189.09;5006451;28;20220;-78
2022/11/27 01:33:14;;;;;;;18.05;11.80;;;;;;;1.79;100.00;62184.03;5002751;28;20196;-78
2022/11/27 01:35:41;;;;;;;17.88;10.88;;;;;;;1.83;100.00;62188.16;5005264;28;20262;-79
2022/11/27 01:38:09;;;;;;;19.35;11.93;;;;;;;1.85;100.00;62190.72;5008124;28;20198;-80
2022/11/27 01:40:37;;;;;;;20.15;12.75;;;;;;;1.78;100.00;62181.00;5008847;28;20440;-80
2022/11/27 01:43:06;;;;;;;18.23;12.02;;;;;;;1.86;100.00;62189.25;5000029;28;20200;-79
2022/11/27 01:45:33;;;;;;;15.70;10.20;;;;;;;1.87;100.00;62197.25;5007342;28;20299;-80
2022/11/27 01:48:03;;;;;;;14.10;9.30;;;;;;;1.86;100.00;62196.78;5007887;28;20227;-78
2022/11/27 01:50:35;;;;;;;17.45;10.07;;;;;;;1.93;100.00;62200.94;5005405;28;20277;-79
2022/11/27 01:53:07;;;;;;;19.67;11.63;;;;;;;1.85;100.00;62193.22;4993909;28;20195;-80
2022/11/27 01:55:37;;;;;;;18.10;11.85;;;;;;;1.88;100.00;62190.78;5005734;28;20242;-77
2022/11/27 01:58:09;;;;;;;27.30;12.43;;;;;;;1.98;100.00;62204.06;5006600;28;20187;-78
2022/11/27 02:00:38;;;;;;;17.95;13.32;;;;;;;1.95;100.00;62198.47;5006564;28;20265;-78
2022/11/27 02:03:05;;;;;;;22.67;13.95;;;;;;;2.00;100.00;62208.13;5011027;28;20196;-79
2022/11/27 02:05:32;;;;;;;28.25;17.35;;;;;;;1.93;100.00;62200.94;5008677;28;20215;-79
2022/11/27 02:08:03;;;;;;;23.27;15.10;;;;;;;2.01;100.00;62206.63;5007981;28;20234;-78
2022/11/27 02:10:40;;;;;;;23.27;15.65;;;;;;;2.04;100.00;62209.69;5003469;28;20229;-80
2022/11/27 02:13:13;;;;;;;26.33;16.27;;;;;;;1.89;100.00;62194.81;5004832;28;20211;-79
2022/11/27 02:15:45;;;;;;;27.52;16.50;;;;;;;1.83;100.00;62188.66;4994516;28;20251;-79
2022/11/27 02:18:19;;;;;;;25.98;16.67;;;;;;;1.83;100.00;62188.66;4988993;28;20200;-79
2022/11/27 02:20:52;;;;;;;29.20;16.92;;;;;;;2.03;100.00;62213.69;5001333;28;20223;-78
2022/11/27 02:23:36;;;;;;;26.92;16.88;;;;;;;1.98;100.00;62206.56;4988590;28;20200;-77
2022/11/27 02:26:41;;;;;;;34.03;18.42;;;;;;;1.99;100.00;62207.59;4986971;28;20224;-78
2022/11/27 02:29:11;;;;;;;25.30;16.75;;;;;;;2.04;100.00;62209.69;4970191;28;20234;-79
2022/11/27 02:31:42;;;;;;;29.95;18.13;;;;;;;2.03;100.00;62213.69;5006118;28;20434;-78
2022/11/27 02:34:19;;;;;;;31.42;18.23;;;;;;;2.07;100.00;62215.31;5008633;28;20218;-77
2022/11/27 02:36:53;;;;;;;26.73;17.67;;;;;;;2.15;100.00;62226.03;4998743;28;20242;-79
2022/11/27 02:39:25;;;;;;;31.05;18.65;;;;;;;2.23;100.00;62234.75;4986950;28;20204;-78
2022/11/27 02:41:59;;;;;;;33.80;18.25;;;;;;;2.26;100.00;62232.81;4999096;28;20246;-78
2022/11/27 02:44:31;;;;;;;34.30;19.95;;;;;;;2.30;100.00;62241.44;5006165;28;20203;-78
2022/11/27 02:46:59;;;;;;;34.20;18.48;;;;;;;2.33;100.00;62240.00;5004877;28;20261;-79
2022/11/27 02:49:28;;;;;;;38.47;17.88;;;;;;;2.32;100.00;62238.47;5007241;28;20229;-77
2022/11/27 02:51:58;;;;;;;28.92;17.77;;;;;;;2.40;100.00;62248.69;5005257;28;20287;-79
2022/11/27 02:54:28;;;;;;;36.80;20.35;;;;;;;2.05;100.00;62211.25;5004471;28;20203;-78
2022/11/27 02:56:58;;;;;;;33.50;19.80;;;;;;;1.88;100.00;62195.78;5003894;28;20251;-78
2022/11/27 02:59:30;;;;;;;38.78;21.02;;;;;;;2.04;100.00;62212.72;5005393;28;20365;-77
2022/11/27 03:02:00;;;;;;;32.35;19.13;;;;;;;1.96;100.00;62202.00;5002729;28;20583;-79
2022/11/27 03:04:33;;;;;;;38.15;21.75;;;;;;;1.96;100.00;62199.50;5003314;28;20203;-78
2022/11/27 03:07:05;;;;;;;34.78;21.38;;;;;;;1.97;100.00;62200.53;5008735;28;20215;-79
2022/11/27 03:09:36;;;;;;;40.03;21.33;;;;;;;1.97;100.00;62205.03;5005620;28;20254;-78
2022/11/27 03:12:06;;;;;;;33.15;20.33;;;;;;;2.08;100.00;62211.31;5003642;28;20223;-80
2022/11/27 03:14:36;;;;;;;36.75;20.85;;;;;;;1.98;100.00;62206.06;5003434;28;20250;-78
2022/11/27 03:17:11;;;;;;;38.00;21.63;;;;;;;2.00;100.00;62206.09;5005234;28;20230;-78
2022/11/27 03:19:42;;;;;;;42.60;23.73;;;;;;;2.03;100.00;62208.69;5006400;28;20244;-79
2022/11/27 03:22:11;;;;;;;32.63;21.60;;;;;;;1.91;100.00;62196.88;5002465;28;20219;-78
2022/11/27 03:24:38;;;;;;;36.97;21.38;;;;;;;1.81;100.00;62188.59;5003621;28;20492;-79
2022/11/27 03:27:06;;;;;;;39.85;21.70;;;;;;;1.65;100.00;62169.66;5005683;28;20223;-79
2022/11/27 03:29:39;;;;;;;39.90;22.42;;;;;;;1.86;100.00;62193.75;5005904;28;20242;-79
2022/11/27 03:32:08;;;;;;;38.65;21.27;;;;;;;2.00;100.00;62205.59;5001648;28;20234;-81
2022/11/27 03:34:35;;;;;;;41.50;20.95;;;;;;;2.07;100.00;62215.31;5005653;28;20203;-78
2022/11/27 03:37:02;;;;;;;41.45;21.70;;;;;;;2.09;100.00;62212.31;5006090;28;20239;-78
2022/11/27 03:39:30;;;;;;;39.97;21.38;;;;;;;2.20;100.00;62229.16;5005346;28;20270;-78
2022/11/27 03:42:09;;;;;;;38.70;22.10;;;;;;;2.15;100.00;62221.00;5004608;28;20246;-79
2022/11/27 03:44:44;;;;;;;41.22;22.95;;;;;;;1.98;100.00;62208.56;4992586;28;20195;-78
2022/11/27 03:47:24;;;;;;;42.85;21.38;;;;;;;1.79;100.00;62184.56;5007399;28;20229;-80
2022/11/27 03:50:05;;;;;;;48.78;25.13;;;;;;;1.97;100.00;62205.53;5005307;28;20269;-80
2022/11/27 03:52:43;;;;;;;43.67;24.67;;;;;;;2.00;100.00;62208.63;5007128;28;20206;-78
2022/11/27 03:55:15;;;;;;;43.20;22.52;;;;;;;1.84;100.00;62194.19;5004975;28;20246;-78
2022/11/27 03:57:48;;;;;;;42.13;22.17;;;;;;;1.56;100.00;62160.94;5002312;28;20274;-78
2022/11/27 04:00:17;;;;;;;44.55;22.40;;;;;;;1.37;100.00;62146.47;4991422;28;20215;-79
2022/11/27 04:02:46;;;;;;;45.88;23.98;;;;;;;1.39;100.00;62143.50;5004501;28;20218;-77
2022/11/27 04:05:14;;;;;;;50.03;23.73;;;;;;;1.33;100.00;62134.34;5006518;28;20281;-78
2022/11/27 04:07:41;;;;;;;50.30;25.52;;;;;;;1.41;100.00;62145.56;5002732;28;20265;-78
2022/11/27 04:10:09;;;;;;;50.88;24.42;;;;;;;1.62;100.00;62166.59;5005140;28;20203;-79
2022/11/27 04:12:36;;;;;;;51.92;24.33;;;;;;;1.62;100.00;62166.59;4999316;28;20274;-79
2022/11/27 04:15:04;;;;;;;52.90;24.75;;;;;;;1.47;100.00;62154.22;4987063;28;20206;-78
2022/11/27 04:17:33;;;;;;;52.20;23.85;;;;;;;1.54;100.00;62158.88;5005008;28;20238;-78
2022/11/27 04:20:00;;;;;;;50.00;24.10;;;;;;;1.66;100.00;62171.22;5007706;28;20195;-78
2022/11/27 04:22:27;;;;;;;52.35;24.98;;;;;;;1.78;100.00;62188.03;5008788;28;20480;-78
2022/11/27 04:24:54;;;;;;;55.85;24.35;;;;;;;1.82;100.00;62189.63;5008818;28;20306;-78
2022/11/27 04:27:21;;;;;;;52.88;24.83;;;;;;;1.86;100.00;62191.75;5009211;28;20203;-78
2022/11/27 04:29:47;;;;;;;49.55;24.88;;;;;;;1.92;100.00;62197.91;5008787;28;20231;-78
2022/11/27 04:32:16;;;;;;;52.03;24.45;;;;;;;1.85;100.00;62188.19;5008658;28;20239;-79
2022/11/27 04:34:44;;;;;;;50.17;26.02;;;;;;;1.80;100.00;62190.59;5009882;28;20242;-82
2022/11/27 04:37:11;;;;;;;49.78;26.50;;;;;;;1.78;100.00;62181.00;5007205;28;20262;-77
2022/11/27 04:39:38;;;;;;;61.22;26.75;;;;;;;1.65;100.00;62170.19;5006325;28;20258;-77
2022/11/27 04:42:05;;;;;;;64.18;28.52;;;;;;;1.65;100.00;62177.72;5006806;28;20223;-78
2022/11/27 04:44:32;;;;;;;59.47;27.52;;;;;;;1.63;100.00;62167.63;5010430;28;20263;-79
2022/11/27 04:46:59;;;;;;;70.57;30.27;;;;;;;1.40;100.00;62144.03;5007514;28;20219;-79
2022/11/27 04:49:26;;;;;;;57.20;26.73;;;;;;;1.31;100.00;62135.31;5008073;28;20428;-79
2022/11/27 04:51:54;;;;;;;61.83;27.35;;;;;;;1.43;100.00;62149.59;5007101;28;20223;-79
2022/11/27 04:54:21;;;;;;;59.08;26.85;;;;;;;1.51;100.00;62155.81;5007481;28;20246;-78
2022/11/27 04:56:48;;;;;;;65.35;28.13;;;;;;;1.38;100.00;62146.97;4999494;28;20285;-78
2022/11/27 04:59:15;;;;;;;61.47;28.67;;;;;;;1.31;100.00;62137.28;5009464;28;20282;-78
2022/11/27 05:01:42;;;;;;;72.53;30.38;;;;;;;1.40;100.00;62141.50;5009363;28;20223;-78
2022/11/27 05:04:09;;;;;;;75.10;29.45;;;;;;;1.42;100.00;62151.59;5007821;28;20507;-79
2022/11/27 05:06:36;;;;;;;69.70;29.88;;;;;;;1.59;100.00;62166.53;5001618;28;20227;-78
2022/11/27 05:09:04;;;;;;;59.40;25.77;;;;;;;1.66;100.00;62171.22;5008377;28;20250;-78
2022/11/27 05:11:32;;;;;;;65.13;28.55;;;;;;;1.62;100.00;62164.09;5009001;28;20255;-78
2022/11/27 05:14:18;;;;;;;67.78;29.80;;;;;;;1.68;100.00;62175.25;5005232;28;20254;-79
2022/11/27 05:16:48;;;;;;;75.35;29.88;;;;;;;1.57;100.00;62159.44;4999881;28;20300;-78
2022/11/27 05:19:16;;;;;;;63.38;28.77;;;;;;;1.63;100.00;62165.09;5008340;28;20266;-77
2022/11/27 05:21:43;;;;;;;70.82;27.83;;;;;;;1.72;100.00;62174.34;5007567;28;20238;-78
2022/11/27 05:24:13;;;;;;;58.40;26.63;;;;;;;1.79;100.00;62184.56;5004477;28;20199;-79
2022/11/27 05:26:41;;;;;;;62.47;27.38;;;;;;;1.78;100.00;62185.50;5009050;28;20248;-79
2022/11/27 05:29:08;;;;;;;63.92;26.83;;;;;;;1.82;100.00;62192.66;5008678;28;20199;-80
2022/11/27 05:31:36;;;;;;;62.60;27.73;;;;;;;1.86;100.00;62191.75;5004120;28;20216;-78
2022/11/27 05:34:03;;;;;;;47.60;22.48;;;;;;;1.79;100.00;62184.03;5000442;28;20195;-78
2022/11/27 05:36:31;;;;;;;50.47;21.98;;;;;;;1.92;100.00;62197.38;5004401;28;20259;-79
2022/11/27 05:38:58;;;;;;;78.07;31.25;;;;;;;1.87;100.00;62195.28;5005263;28;20200;-78
2022/11/27 05:41:26;;;;;;;81.78;34.75;;;;;;;1.71;100.00;62176.34;5009006;28;20219;-78
2022/11/27 05:43:53;;;;;;;72.40;31.58;;;;;;;1.77;100.00;62185.00;5007413;28;20203;-79
2022/11/27 05:46:22;;;;;;;68.28;32.65;;;;;;;1.82;100.00;62190.16;5006692;28;20219;-79
2022/11/27 05:48:50;;;;;;;61.75;26.77;;;;;;;1.82;100.00;62187.13;5007672;28;20215;-78
2022/11/27 05:51:17;;;;;;;57.53;26.75;;;;;;;1.82;100.00;62192.66;4987553;28;20432;-78
2022/11/27 05:53:45;;;;;;;63.28;28.13;;;;;;;1.81;100.00;62186.09;4987562;28;20204;-78
2022/11/27 05:56:14;;;;;;;62.13;26.88;;;;;;;1.89;100.00;62197.34;4988450;28;20259;-80
2022/11/27 05:58:44;;;;;;;61.08;27.50;;;;;;;1.64;100.00;62171.66;4993423;28;20206;-78
2022/11/27 06:01:14;;;;;;;66.43;27.55;;;;;;;1.41;100.00;62147.53;5007289;28;20219;-78
2022/11/27 06:03:40;;;;;;;56.25;27.10;;;;;;;1.43;100.00;62147.63;5003425;28;20207;-78
2022/11/27 06:06:09;;;;;;;54.33;27.73;;;;;;;1.45;100.00;62154.66;5003262;28;20224;-79
2022/11/27 06:08:37;;;;;;;59.15;27.45;;;;;;;1.55;100.00;62162.44;5006150;28;20531;-79
2022/11/27 06:11:07;;;;;;;69.22;28.40;;;;;;;1.48;100.00;62149.72;5008916;28;20225;-80
2022/11/27 06:13:35;;;;;;;58.00;28.83;;;;;;;1.53;100.00;62154.84;5006809;28;20203;-78
2022/11/27 06:16:07;;;;;;;49.35;24.45;;;;;;;1.58;100.00;62165.50;5005794;28;20396;-78
2022/11/27 06:18:34;;;;;;;51.05;25.90;;;;;;;1.70;100.00;62177.81;5002821;28;20263;-80
2022/11/27 06:21:00;;;;;;;58.22;27.55;;;;;;;1.60;100.00;62167.06;4995179;28;20434;-79
2022/11/27 06:23:27;;;;;;;57.58;26.90;;;;;;;1.58;100.00;62163.00;4993866;28;20254;-79
2022/11/27 06:25:54;;;;;;;57.85;25.42;;;;;;;1.79;100.00;62182.06;5009936;28;20545;-79
2022/11/27 06:28:21;;;;;;;57.13;25.77;;;;;;;1.97;100.00;62198.00;5018359;28;20206;-79
2022/11/27 06:30:48;;;;;;;55.03;26.63;;;;;;;2.07;100.00;62210.28;5000404;28;20299;-79
2022/11/27 06:33:17;;;;;;;50.53;25.58;;;;;;;2.12;100.00;62218.44;4997356;28;20195;-78
2022/11/27 06:35:44;;;;;;;52.05;26.55;;;;;;;2.19;100.00;62227.63;4995694;28;20223;-77
2022/11/27 06:38:11;;;;;;;48.85;24.73;;;;;;;1.95;100.00;62200.47;4994412;28;20286;-79
2022/11/27 06:40:38;;;;;;;44.45;23.48;;;;;;;2.10;100.00;62216.38;4993164;28;20386;-80
2022/11/27 06:43:05;;;;;;;45.92;25.42;;;;;;;2.16;100.00;62217.00;4992026;28;20199;-79
2022/11/27 06:45:31;;;;;;;52.47;25.13;;;;;;;2.28;100.00;62232.34;4994240;28;20324;-79
2022/11/27 06:47:58;;;;;;;52.28;25.42;;;;;;;2.40;100.00;62246.16;5001692;28;20199;-79
2022/11/27 06:50:27;;;;;;;47.42;24.15;;;;;;;2.20;100.00;62224.16;4990687;28;20291;-79
2022/11/27 06:52:53;;;;;;;54.13;24.95;;;;;;;2.34;100.00;62243.53;4996594;28;20200;-80
2022/11/27 06:55:21;;;;;;;48.97;23.85;;;;;;;2.40;100.00;62248.69;4992962;28;20239;-79
2022/11/27 06:57:50;;;;;;;50.17;25.50;;;;;;;2.54;100.00;62258.53;4993683;28;20227;-79
2022/11/27 07:00:19;;;;;;;46.17;24.60;;;;;;;2.54;100.00;62260.56;4990975;28;20227;-78
2022/11/27 07:02:45;;;;;;;47.22;23.38;;;;;;;2.50;100.00;62253.94;4992440;28;20231;-78
2022/11/27 07:05:12;;;;;;;48.58;24.30;;;;;;;2.38;100.00;62247.66;5001558;28;20255;-77
2022/11/27 07:07:41;;;;;;;50.13;25.75;;;;;;;2.78;100.00;62285.72;5005343;28;20258;-78
2022/11/27 07:10:09;;;;;;;45.08;23.75;;;;;;;2.79;100.00;62288.75;5005747;28;20203;-79
2022/11/27 07:12:36;;;;;;;39.22;22.48;;;;;;;2.76;100.00;62283.16;4993722;28;20277;-79
2022/11/27 07:15:03;;;;;;;44.47;24.13;;;;;;;2.69;100.00;62280.97;5005839;28;20200;-80
2022/11/27 07:17:30;;;;;;;40.47;22.05;;;;;;;2.54;100.00;62263.56;5006062;28;20566;-79
2022/11/27 07:19:57;;;;;;;44.75;22.45;;;;;;;2.23;100.00;62229.72;5008494;28;20492;-80
2022/11/27 07:22:23;;;;;;;45.05;23.70;;;;;;;2.07;100.00;62213.28;5006243;28;20305;-78
2022/11/27 07:24:54;;;;;;;49.22;25.90;;;;;;;2.09;100.00;62214.84;5007949;28;20200;-80
2022/11/27 07:27:21;;;;;;;45.85;24.48;;;;;;;2.15;100.00;62221.00;5006935;28;20262;-81
2022/11/27 07:29:48;;;;;;;52.47;25.85;;;;;;;2.21;100.00;62227.16;4998230;28;20545;-80
2022/11/27 07:32:15;;;;;;;43.05;24.75;;;;;;;2.26;100.00;62234.81;5005985;28;20199;-78
2022/11/27 07:34:41;;;;;;;48.42;24.33;;;;;;;2.32;100.00;62240.97;5005911;28;20492;-80
2022/11/27 07:37:08;;;;;;;47.00;25.08;;;;;;;2.46;100.00;62250.34;5006422;28;20230;-79
2022/11/27 07:39:35;;;;;;;48.63;24.77;;;;;;;2.63;100.00;62269.78;4998701;28;20201;-79
2022/11/27 07:42:04;;;;;;;49.80;26.88;;;;;;;2.60;100.00;62266.72;5002938;28;20221;-80
2022/11/27 07:44:31;;;;;;;47.83;26.10;;;;;;;2.70;100.00;62279.50;5003947;28;20215;-80
2022/11/27 07:46:58;;;;;;;47.13;26.65;;;;;;;2.73;100.00;62282.56;5007579;28;20215;-79
2022/11/27 07:49:25;;;;;;;53.25;28.17;;;;;;;2.68;100.00;62277.44;5010402;28;20246;-80
2022/11/27 07:51:52;;;;;;;61.22;28.98;;;;;;;2.90;100.00;62295.03;5007186;28;20471;-81
2022/11/27 07:54:19;;;;;;;48.38;28.05;;;;;;;2.67;100.00;62276.41;4995205;28;20204;-79
2022/11/27 07:56:45;;;;;;;50.78;25.83;;;;;;;2.66;100.00;62277.91;4996997;28;20229;-81
2022/11/27 07:59:14;;;;;;;49.45;28.08;;;;;;;2.86;100.00;62295.94;4994065;28;20195;-81
2022/11/27 08:01:41;;;;;;;48.83;26.33;;;;;;;3.18;100.00;62326.31;5006902;28;20282;-81
2022/11/27 08:04:08;;;;;;;49.80;29.13;;;;;;;3.33;100.00;62342.25;5006389;28;20270;-81
2022/11/27 08:06:35;;;;;;;46.22;27.67;;;;;;;3.16;100.00;62324.75;5003873;28;20439;-79
2022/11/27 08:09:02;;;;;;;49.90;27.95;;;;;;;2.71;100.00;62278.03;5006329;28;20203;-79
2022/11/27 08:11:31;;;;;;;47.05;27.63;;;;;;;2.64;100.00;62273.84;5004169;28;20321;-80
2022/11/27 08:14:01;;;;;;;48.72;27.33;;;;;;;2.62;100.00;62273.78;5003937;28;20242;-79
2022/11/27 08:16:30;;;;;;;48.97;29.65;;;;;;;2.78;100.00;62285.72;5006701;28;20426;-80
2022/11/27 08:18:57;;;;;;;54.20;30.17;;;;;;;2.70;100.00;62274.47;5006051;28;20239;-80
2022/11/27 08:21:25;;;;;;;49.03;28.50;;;;;;;2.91;100.00;62301.06;5007706;28;20226;-80
2022/11/27 08:23:52;;;;;;;55.90;29.38;;;;;;;3.14;100.00;62322.72;5005274;28;20203;-80
2022/11/27 08:26:20;;;;;;;51.55;30.45;;;;;;;3.14;100.00;62325.22;5007734;28;20227;-80
2022/11/27 08:28:47;;;;;;;55.17;30.52;;;;;;;3.26;100.00;62337.56;5006889;28;20204;-79
2022/11/27 08:31:15;;;;;;;52.45;27.25;;;;;;;3.55;100.00;62359.81;5006607;28;20281;-78
2022/11/27 08:33:43;;;;;;;48.42;29.08;;;;;;;3.79;100.00;62391.03;5002330;28;20203;-78
2022/11/27 08:36:10;;;;;;;51.05;30.92;;;;;;;3.89;100.00;62401.31;5007143;28;20246;-79
2022/11/27 08:38:37;;;;;;;51.53;30.20;;;;;;;3.98;100.00;62408.59;5005066;28;20283;-79
2022/11/27 08:41:06;;;;;;;49.53;29.42;;;;;;;4.04;100.00;62412.22;5005841;28;20265;-79
2022/11/27 08:43:33;;;;;;;47.28;26.35;;;;;;;3.97;100.00;62407.03;5000448;28;20223;-79
2022/11/27 08:46:05;;;;;;;49.78;28.65;;;;;;;3.79;100.00;62391.56;4988689;28;20216;-79
2022/11/27 08:48:39;;;;;;;47.78;26.58;;;;;;;4.04;100.00;62414.75;5002243;28;20547;-79
2022/11/27 08:51:09;;;;;;;47.10;26.80;;;;;;;3.80;100.00;62390.06;4998640;28;20319;-78
2022/11/27 08:53:39;;;;;;;41.55;25.80;;;;;;;4.12;100.00;62425.00;4994267;28;20600;-78
2022/11/27 08:56:08;;;;;;;47.70;24.60;;;;;;;4.35;100.00;62449.16;5001485;28;20291;-80
2022/11/27 08:58:35;;;;;;;45.28;25.23;;;;;;;4.51;100.00;62462.59;5005737;28;20266;-81
2022/11/27 09:01:08;;;;;;;44.03;26.50;;;;;;;4.54;100.00;62463.16;5001853;28;20266;-79
2022/11/27 09:03:35;;;;;;;49.15;26.05;;;;;;;4.30;100.00;62440.97;5005805;28;20262;-78
2022/11/27 09:06:02;;;;;;;41.08;26.00;;;;;;;4.17;100.00;62425.09;5006137;28;20215;-80
2022/11/27 09:08:30;;;;;;;46.28;27.10;;;;;;;4.04;100.00;62414.25;5002725;28;20203;-81
2022/11/27 09:11:31;;;;;;;45.92;27.98;;;;;;;3.59;100.00;62367.97;5009054;28;20219;-82
2022/11/27 09:14:08;;;;;;;44.72;26.85;;;;;;;3.80;100.00;62387.53;4999572;28;20218;-80
2022/11/27 09:16:38;;;;;;;52.90;27.13;;;;;;;4.16;100.00;62429.59;5003004;28;20219;-80
2022/11/27 09:19:07;;;;;;;45.25;25.67;;;;;;;4.49;100.00;62463.56;5008280;28;20241;-80
2022/11/27 09:21:34;;;;;;;45.05;27.02;;;;;;;4.73;100.00;62485.25;5010012;28;20219;-80
2022/11/27 09:24:02;;;;;;;44.50;27.77;;;;;;;4.94;100.00;62506.88;5004177;28;20196;-82
2022/11/27 09:26:32;;;;;;;52.25;29.15;;;;;;;4.73;100.00;62490.81;5007666;28;20227;-80
2022/11/27 09:29:01;;;;;;;33.33;22.05;;;;;;;4.74;100.00;62489.31;5009177;28;20200;-80
2022/11/27 09:31:28;;;;;;;33.42;20.48;;;;;;;4.39;100.00;62452.75;5009129;28;20223;-80
2022/11/27 09:33:57;;;;;;;30.00;19.58;;;;;;;4.53;100.00;62464.66;4993286;28;20266;-81
2022/11/27 09:36:25;;;;;;;32.38;20.77;;;;;;;4.82;100.00;62493.97;4990116;28;20245;-79
2022/11/27 09:38:53;;;;;;;33.58;19.70;;;;;;;4.90;100.00;62507.78;5001879;28;20411;-80
2022/11/27 09:41:38;;;;;;;32.28;20.10;;;;;;;5.16;100.00;62529.00;5008857;28;20223;-79
2022/11/27 09:44:13;;;;;;;30.20;20.42;;;;;;;5.34;100.00;62550.59;5010187;28;20207;-80
2022/11/27 09:46:42;;;;;;;29.80;20.15;;;;;;;5.55;100.00;62564.13;5008644;28;20226;-80
2022/11/27 09:49:14;;;;;;;28.20;18.70;;;;;;;5.45;100.00;62558.88;5007311;28;20214;-79
2022/11/27 09:51:45;;;;;;;26.90;17.20;;;;;;;5.78;99.88;62595.41;5007652;28;20223;-80
2022/11/27 09:54:18;;;;;;;24.02;16.60;;;;;;;6.09;98.33;62621.81;5008495;28;20227;-80
2022/11/27 09:56:50;;;;;;;25.67;17.42;;;;;;;6.26;97.26;62644.38;5007661;28;20219;-79
2022/11/27 09:59:19;;;;;;;28.27;18.52;;;;;;;6.35;95.33;62654.16;5008212;28;20243;-80
2022/11/27 10:01:46;;;;;;;30.88;18.83;;;;;;;6.58;94.54;62675.38;5008395;28;20225;-78
2022/11/27 10:04:16;;;;;;;28.17;18.08;;;;;;;6.86;93.98;62704.25;5003662;28;20196;-79
2022/11/27 10:06:59;;;;;;;27.00;19.02;;;;;;;7.21;92.95;62739.84;4990640;28;20220;-80
2022/11/27 10:09:39;;;;;;;19.35;13.75;;;;;;;6.72;90.91;62692.34;4988465;28;20223;-80
2022/11/27 10:12:17;;;;;;;24.38;16.30;;;;;;;6.80;90.35;62700.06;4989446;28;20267;-81
2022/11/27 10:14:58;;;;;;;28.63;19.08;;;;;;;7.12;89.09;62732.56;4992370;28;20223;-80
2022/11/27 10:17:31;;;;;;;27.77;18.35;;;;;;;7.26;88.82;62745.00;5007679;28;20195;-79
2022/11/27 10:20:11;;;;;;;31.75;18.80;;;;;;;7.50;87.88;62769.25;5008439;28;20210;-80
2022/11/27 10:22:48;;;;;;;29.55;20.55;;;;;;;7.35;87.32;62753.75;5000250;28;20204;-79
2022/11/27 10:25:20;;;;;;;29.77;19.73;;;;;;;7.58;86.24;62780.03;4998697;28;20227;-81
2022/11/27 10:28:00;;;;;;;39.67;21.92;;;;;;;7.80;85.82;62803.25;4993086;28;20199;-80
2022/11/27 10:30:36;;;;;;;26.92;18.10;;;;;;;7.82;84.19;62805.31;4997938;28;20230;-80
2022/11/27 10:33:13;;;;;;;32.35;18.90;;;;;;;7.95;83.57;62818.22;5002980;28;20214;-81
2022/11/27 10:35:45;;;;;;;30.95;19.55;;;;;;;7.98;83.60;62813.72;4997014;28;20306;-79
2022/11/27 10:38:17;;;;;;;30.23;19.20;;;;;;;7.91;83.34;62816.63;4995284;28;20438;-79
2022/11/27 10:40:50;;;;;;;25.02;15.80;;;;;;;8.01;82.03;62824.41;4991238;28;20231;-82
2022/11/27 10:43:19;;;;;;;27.25;17.15;;;;;;;8.12;81.71;62833.78;4991676;28;20216;-81
2022/11/27 10:45:50;;;;;;;25.38;15.77;;;;;;;8.13;81.40;62834.28;4988324;28;20299;-79
2022/11/27 10:48:18;;;;;;;28.17;17.77;;;;;;;8.16;80.67;62837.38;5000473;28;20229;-80
2022/11/27 10:50:45;;;;;;;29.52;18.10;;;;;;;8.31;81.08;62852.38;4996710;28;20220;-81
2022/11/27 10:53:23;;;;;;;25.70;15.80;;;;;;;8.19;79.88;62843.03;5002733;28;21326;-79
2022/11/27 10:56:05;;;;;;;20.75;13.43;;;;;;;8.17;78.86;62836.41;5003255;28;20223;-80
2022/11/27 10:58:40;;;;;;;24.80;15.45;;;;;;;8.25;78.64;62854.28;5002440;28;20406;-79
2022/11/27 11:01:11;;;;;;;23.00;16.05;;;;;;;7.71;80.62;62790.91;5005136;28;20211;-82
2022/11/27 11:03:39;;;;;;;29.90;17.02;;;;;;;7.49;82.20;62763.66;5005292;28;20221;-81
2022/11/27 11:06:15;;;;;;;21.98;16.30;;;;;;;7.57;82.48;62779.00;5007617;28;20539;-79
2022/11/27 11:08:42;;;;;;;25.30;15.25;;;;;;;7.82;81.95;62800.25;4993228;28;20207;-79
2022/11/27 11:11:10;;;;;;;22.80;14.50;;;;;;;8.01;80.95;62822.41;4992222;28;20299;-80
2022/11/27 11:13:46;;;;;;;30.52;16.55;;;;;;;7.94;80.28;62817.72;5006006;28;20218;-82
2022/11/27 11:16:20;;;;;;;23.80;15.10;;;;;;;7.83;80.65;62806.38;4992849;28;20293;-79
2022/11/27 11:18:48;;;;;;;22.65;15.02;;;;;;;7.94;80.82;62820.25;4995195;28;20404;-79
2022/11/27 11:21:19;;;;;;;25.40;15.38;;;;;;;7.85;79.93;62808.41;5008047;28;20242;-80
2022/11/27 11:23:56;;;;;;;24.17;14.63;;;;;;;7.93;80.94;62816.16;5007731;28;20203;-80
2022/11/27 11:26:29;;;;;;;22.63;15.18;;;;;;;7.99;81.08;62822.34;5004527;28;20261;-80
2022/11/27 11:28:59;;;;;;;24.48;15.73;;;;;;;8.02;80.51;62825.47;4999862;28;20239;-79
2022/11/27 11:31:31;;;;;;;22.67;15.57;;;;;;;8.01;80.55;62824.94;4987574;28;20219;-81